Time;durP1;ratioP1;P1;durP2;ratioP2;P2;SDS_P1;SDS_P2;PMS_P1;PMS_P2;Temp;Humidity;BMP_temperature;BMP_pressure;BME280_temperature;BME280_humidity;BME280_pressure;Samples;Min_cycle;Max_cycle;Signal;HPM_P1;HPM_P2
2021/10/31 00:01:23;;;;;;;93.27;47.48;;;;;;;2.76;100.00;101463.73;1659706;84;21097;-71
2021/10/31 00:03:51;;;;;;;93.97;48.15;;;;;;;2.74;100.00;101463.72;1671752;84;21167;-70
2021/10/31 00:06:18;;;;;;;98.07;48.45;;;;;;;2.72;100.00;101461.09;1666971;85;21258;-70
2021/10/31 00:08:44;;;;;;;106.80;48.02;;;;;;;2.70;100.00;101456.28;1663333;84;21074;-70
2021/10/31 00:11:12;;;;;;;119.22;53.48;;;;;;;2.67;100.00;101462.74;1652741;84;21142;-69
2021/10/31 00:13:38;;;;;;;131.30;51.08;;;;;;;2.64;100.00;101460.07;1646174;84;21583;-70
2021/10/31 00:16:05;;;;;;;111.77;55.98;;;;;;;2.61;100.00;101454.83;1656520;85;21057;-70
2021/10/31 00:18:33;;;;;;;120.77;54.67;;;;;;;2.60;100.00;101453.09;1665601;85;21056;-70
2021/10/31 00:21:00;;;;;;;112.42;51.98;;;;;;;2.60;100.00;101451.80;1658976;86;21524;-69
2021/10/31 00:23:26;;;;;;;106.80;50.83;;;;;;;2.59;100.00;101448.72;1660344;85;21126;-70
2021/10/31 00:25:53;;;;;;;87.92;45.08;;;;;;;2.57;100.00;101449.55;1667334;85;21108;-69
2021/10/31 00:28:19;;;;;;;115.35;51.88;;;;;;;2.54;100.00;101448.21;1667404;85;21119;-70
2021/10/31 00:30:46;;;;;;;89.03;43.50;;;;;;;2.52;100.00;101451.64;1673206;84;21259;-69
2021/10/31 00:33:12;;;;;;;101.47;47.27;;;;;;;2.50;100.00;101443.36;1674938;83;21078;-71
2021/10/31 00:35:38;;;;;;;119.45;48.10;;;;;;;2.49;100.00;101447.70;1671105;84;21097;-72
2021/10/31 00:38:05;;;;;;;72.27;39.18;;;;;;;2.41;100.00;101423.70;1673523;85;21060;-72
2021/10/31 00:40:33;;;;;;;88.70;44.10;;;;;;;2.41;100.00;101423.70;1650220;85;21157;-71
2021/10/31 00:43:00;;;;;;;92.67;45.98;;;;;;;2.40;100.00;101436.27;1665059;85;21066;-70
2021/10/31 00:45:26;;;;;;;99.62;50.58;;;;;;;2.37;100.00;101433.59;1674121;85;21064;-72
2021/10/31 00:47:54;;;;;;;95.45;48.05;;;;;;;2.39;100.00;101434.50;1619190;88;21151;-72
2021/10/31 00:50:21;;;;;;;100.50;49.40;;;;;;;2.37;100.00;101438.80;1662074;85;21581;-72
2021/10/31 00:52:48;;;;;;;86.70;44.35;;;;;;;2.35;100.00;101428.79;1662575;86;21135;-71
2021/10/31 00:55:17;;;;;;;85.75;45.12;;;;;;;2.33;100.00;101431.81;1642479;85;21099;-72
2021/10/31 00:57:43;;;;;;;80.80;43.17;;;;;;;2.25;100.00;101426.46;1663145;86;21150;-72
2021/10/31 01:00:11;;;;;;;87.40;42.98;;;;;;;2.25;100.00;101426.46;1667556;85;21123;-71
2021/10/31 01:02:39;;;;;;;78.67;43.20;;;;;;;2.19;100.00;101420.74;1667596;85;21065;-71
2021/10/31 01:05:09;;;;;;;76.47;41.83;;;;;;;2.16;100.00;101424.56;1655527;85;21825;-72
2021/10/31 01:08:17;;;;;;;76.40;41.55;;;;;;;2.12;100.00;101423.19;1668479;85;21704;-71
2021/10/31 01:10:56;;;;;;;72.37;39.92;;;;;;;2.08;100.00;101422.27;1669562;85;21108;-70
2021/10/31 01:13:45;;;;;;;75.50;41.05;;;;;;;1.98;100.00;101416.44;1651837;85;21096;-70
2021/10/31 01:16:38;;;;;;;79.95;42.38;;;;;;;1.98;100.00;101416.44;1666931;85;21091;-72
2021/10/31 01:19:25;;;;;;;76.72;41.77;;;;;;;1.93;100.00;101414.18;1654069;85;21577;-71
2021/10/31 01:22:28;;;;;;;72.40;38.58;;;;;;;1.90;100.00;101415.00;1624744;88;21067;-71
2021/10/31 01:25:08;;;;;;;62.30;33.50;;;;;;;1.87;100.00;101412.36;1663674;85;21107;-71
2021/10/31 01:27:46;;;;;;;82.22;43.68;;;;;;;1.84;100.00;101415.77;1649133;86;21075;-70
2021/10/31 01:30:49;;;;;;;77.67;43.83;;;;;;;1.80;100.00;101410.06;1657605;86;21074;-70
2021/10/31 01:33:42;;;;;;;76.02;40.30;;;;;;;1.76;100.00;101411.27;1645672;85;21126;-71
2021/10/31 01:36:23;;;;;;;68.72;37.05;;;;;;;1.73;100.00;101408.19;1656786;86;21069;-71
2021/10/31 01:39:26;;;;;;;81.47;40.83;;;;;;;1.70;100.00;101402.91;1668293;85;21015;-71
2021/10/31 01:42:16;;;;;;;73.62;39.33;;;;;;;1.65;100.00;101399.36;1650899;86;21142;-72
2021/10/31 01:45:08;;;;;;;87.78;43.50;;;;;;;1.60;100.00;101401.00;1665490;85;26827;-71
2021/10/31 01:47:46;;;;;;;72.58;38.67;;;;;;;1.54;100.00;101402.16;1664437;85;21083;-72
2021/10/31 01:50:27;;;;;;;45.75;25.85;;;;;;;1.50;100.00;101399.08;1663193;85;21769;-71
2021/10/31 01:53:01;;;;;;;79.00;39.98;;;;;;;1.46;100.00;101398.99;1663369;85;21307;-70
2021/10/31 01:55:38;;;;;;;77.58;42.67;;;;;;;1.43;100.00;101393.75;1666847;85;21514;-69
2021/10/31 01:58:06;;;;;;;85.12;43.28;;;;;;;1.37;100.00;101393.61;1641614;85;21685;-70
2021/10/31 02:00:33;;;;;;;91.82;44.95;;;;;;;1.36;100.00;101393.60;1666976;85;21163;-71
2021/10/31 02:03:02;;;;;;;91.45;44.53;;;;;;;1.32;100.00;101390.48;1665739;86;21580;-71
2021/10/31 02:05:32;;;;;;;101.92;45.85;;;;;;;1.30;100.00;101391.73;1663090;85;21062;-69
2021/10/31 02:08:06;;;;;;;99.22;48.13;;;;;;;1.24;100.00;101390.30;1666729;85;21094;-71
2021/10/31 02:10:33;;;;;;;106.87;46.85;;;;;;;1.18;100.00;101388.89;1664826;85;21065;-72
2021/10/31 02:13:02;;;;;;;86.05;40.15;;;;;;;1.15;100.00;101395.29;1663478;85;21073;-69
2021/10/31 02:15:29;;;;;;;89.10;43.90;;;;;;;1.14;100.00;101392.26;1654888;85;21066;-69
2021/10/31 02:17:56;;;;;;;66.05;35.00;;;;;;;1.12;100.00;101389.62;1665216;86;21353;-70
2021/10/31 02:20:24;;;;;;;89.42;40.48;;;;;;;1.11;100.00;101380.52;1665087;85;21061;-70
2021/10/31 02:22:56;;;;;;;69.58;35.38;;;;;;;1.13;100.00;101385.30;1650948;85;21096;-72
2021/10/31 02:25:23;;;;;;;77.42;40.85;;;;;;;1.12;100.00;101386.16;1665558;85;21145;-69
2021/10/31 02:27:50;;;;;;;72.08;39.90;;;;;;;1.11;100.00;101379.23;1642251;85;21031;-72
2021/10/31 02:30:16;;;;;;;81.35;42.23;;;;;;;1.09;100.00;101380.91;1659966;85;21114;-71
2021/10/31 02:32:43;;;;;;;71.33;39.88;;;;;;;1.08;100.00;101384.33;1655312;85;66261;-71
2021/10/31 02:35:11;;;;;;;73.83;40.78;;;;;;;1.04;100.00;101379.08;1665041;85;21027;-70
2021/10/31 02:37:41;;;;;;;71.28;38.55;;;;;;;1.00;100.00;101386.34;1658113;85;21136;-70
2021/10/31 02:40:11;;;;;;;73.57;39.80;;;;;;;0.95;100.00;101384.06;1663592;85;21069;-70
2021/10/31 02:42:38;;;;;;;72.95;40.95;;;;;;;0.90;100.00;101380.50;1647264;85;21061;-70
2021/10/31 02:45:07;;;;;;;82.25;45.65;;;;;;;0.82;100.00;101380.31;1657702;85;21635;-69
2021/10/31 02:47:47;;;;;;;85.75;43.52;;;;;;;0.75;100.00;101375.83;1662789;86;21078;-71
2021/10/31 02:50:17;;;;;;;;;;;;;;;0.72;100.00;101374.90;1668623;86;21155;-69
2021/10/31 02:53:11;;;;;;;91.70;47.95;;;;;;;0.68;100.00;101384.73;1659594;85;20136;-69
2021/10/31 02:55:52;;;;;;;51.70;29.45;;;;;;;0.63;100.00;101384.62;1653179;85;21086;-71
2021/10/31 02:58:27;;;;;;;73.90;37.63;;;;;;;0.59;100.00;101391.87;1653043;85;21072;-73
2021/10/31 03:01:00;;;;;;;78.62;41.15;;;;;;;0.55;100.00;101388.34;1659996;85;21115;-71
2021/10/31 03:03:30;;;;;;;82.12;42.55;;;;;;;0.51;100.00;101390.83;1668660;85;21766;-70
2021/10/31 03:05:57;;;;;;;86.10;46.18;;;;;;;0.50;100.00;101400.29;1665368;85;26953;-72
2021/10/31 03:08:26;;;;;;;80.00;43.30;;;;;;;0.50;100.00;101379.98;1664176;86;21031;-72
2021/10/31 03:10:56;;;;;;;80.28;45.80;;;;;;;0.50;100.00;101384.74;1660339;84;22256;-70
2021/10/31 03:13:26;;;;;;;69.35;40.25;;;;;;;0.47;100.00;101380.79;1650162;85;21485;-71
2021/10/31 03:15:53;;;;;;;73.62;42.00;;;;;;;0.46;100.00;101379.45;1657866;85;21215;-72
2021/10/31 03:18:20;;;;;;;68.90;39.50;;;;;;;0.43;100.00;101376.36;1659817;85;21059;-71
2021/10/31 03:20:46;;;;;;;60.70;33.13;;;;;;;0.40;100.00;101373.28;1664372;86;21055;-69
2021/10/31 03:23:13;;;;;;;80.12;43.38;;;;;;;0.39;100.00;101371.55;1658069;85;21543;-73
2021/10/31 03:25:40;;;;;;;62.10;34.90;;;;;;;0.37;100.00;101368.46;1660085;85;21112;-72
2021/10/31 03:28:07;;;;;;;61.20;35.80;;;;;;;0.35;100.00;101374.89;1657267;85;21156;-71
2021/10/31 03:30:34;;;;;;;75.62;41.23;;;;;;;0.35;100.00;101374.02;1655844;85;21594;-71
2021/10/31 03:33:01;;;;;;;65.45;35.95;;;;;;;0.34;100.00;101373.55;1656322;84;23894;-72
2021/10/31 03:35:28;;;;;;;59.77;33.58;;;;;;;0.31;100.00;101369.59;1658853;85;21033;-76
2021/10/31 03:37:54;;;;;;;67.53;35.25;;;;;;;0.30;100.00;101380.78;1668082;85;21149;-68
2021/10/31 03:40:21;;;;;;;75.37;42.80;;;;;;;0.28;100.00;101381.19;1657370;85;21617;-68
2021/10/31 03:42:47;;;;;;;67.97;39.73;;;;;;;0.26;100.00;101376.39;1651588;85;21089;-83
2021/10/31 03:45:13;;;;;;;71.05;41.20;;;;;;;0.25;100.00;101372.02;1666051;85;21431;-79
2021/10/31 03:47:46;;;;;;;76.02;42.83;;;;;;;0.23;100.00;101369.81;1665751;85;21130;-70
2021/10/31 03:50:14;;;;;;;74.03;40.65;;;;;;;0.19;100.00;101372.34;1667192;84;21069;-70
2021/10/31 03:52:42;;;;;;;73.00;41.23;;;;;;;0.19;100.00;101363.69;1667043;84;21812;-70
2021/10/31 03:55:10;;;;;;;76.65;41.95;;;;;;;0.13;100.00;101363.11;1659577;85;21106;-71
2021/10/31 03:57:38;;;;;;;80.03;42.50;;;;;;;0.09;100.00;101358.71;1661194;84;21092;-69
2021/10/31 04:00:07;;;;;;;70.50;39.33;;;;;;;0.06;100.00;101358.61;1673668;84;21061;-72
2021/10/31 04:02:38;;;;;;;74.87;41.42;;;;;;;0.05;100.00;101357.30;1629852;86;21090;-68
2021/10/31 04:05:06;;;;;;;62.70;36.48;;;;;;;0.02;100.00;101359.78;1652985;86;21351;-75
2021/10/31 04:07:34;;;;;;;68.00;37.95;;;;;;;-0.04;100.00;101354.05;1659890;86;21498;-73
2021/10/31 04:10:06;;;;;;;69.72;38.45;;;;;;;-0.08;100.00;101354.37;1661009;86;21129;-72
2021/10/31 04:12:34;;;;;;;58.05;34.50;;;;;;;-0.09;100.00;101362.09;1661019;86;21102;-71
2021/10/31 04:15:06;;;;;;;62.35;35.38;;;;;;;-0.13;100.00;101355.10;1660737;86;21071;-70
2021/10/31 04:17:33;;;;;;;63.40;36.80;;;;;;;-0.16;100.00;101353.70;1664361;85;21136;-68
2021/10/31 04:20:00;;;;;;;72.03;40.38;;;;;;;-0.22;100.00;101350.12;1661859;85;21095;-72
2021/10/31 04:22:28;;;;;;;76.82;43.30;;;;;;;-0.26;100.00;101349.58;1661616;85;21648;-72
2021/10/31 04:24:55;;;;;;;79.37;45.40;;;;;;;-0.26;100.00;101352.17;1639057;86;21083;-71
2021/10/31 04:27:22;;;;;;;81.60;42.88;;;;;;;-0.24;100.00;101351.80;1656034;86;21120;-72
2021/10/31 04:29:48;;;;;;;78.45;43.68;;;;;;;-0.26;100.00;101352.59;1659344;86;21666;-70
2021/10/31 04:32:15;;;;;;;78.30;42.45;;;;;;;-0.27;100.00;101346.55;1651198;84;48019;-74
2021/10/31 04:34:42;;;;;;;73.80;41.08;;;;;;;-0.28;100.00;101339.59;1633375;87;22288;-72
2021/10/31 04:37:08;;;;;;;83.17;45.88;;;;;;;-0.30;100.00;101337.80;1630690;87;21122;-72
2021/10/31 04:39:35;;;;;;;84.85;46.83;;;;;;;-0.35;100.00;101342.86;1641515;87;21671;-74
2021/10/31 04:42:04;;;;;;;78.65;45.95;;;;;;;-0.38;100.00;101350.98;1645095;85;22138;-73
2021/10/31 04:44:30;;;;;;;80.00;44.53;;;;;;;-0.40;100.00;101354.81;1645679;85;21057;-74
2021/10/31 04:46:58;;;;;;;79.97;43.35;;;;;;;-0.46;100.00;101357.22;1630721;87;21546;-73
2021/10/31 04:49:24;;;;;;;75.97;42.55;;;;;;;-0.46;100.00;101359.80;1643991;85;21076;-74
2021/10/31 04:51:51;;;;;;;72.90;40.55;;;;;;;-0.43;100.00;101353.44;1636822;87;21137;-73
2021/10/31 04:54:17;;;;;;;70.42;40.28;;;;;;;-0.38;100.00;101360.91;1636967;87;21149;-74
2021/10/31 04:56:44;;;;;;;80.00;41.95;;;;;;;-0.35;100.00;101359.69;1626376;87;21206;-72
2021/10/31 04:59:10;;;;;;;68.83;37.25;;;;;;;-0.35;100.00;101355.80;1635182;87;21577;-73
2021/10/31 05:01:38;;;;;;;86.57;46.25;;;;;;;-0.33;100.00;101362.33;1635713;87;21098;-74
2021/10/31 05:04:04;;;;;;;75.03;43.78;;;;;;;-0.30;100.00;101364.59;1637837;85;21053;-73
2021/10/31 05:06:33;;;;;;;73.83;44.13;;;;;;;-0.28;100.00;101360.30;1637592;87;21607;-74
2021/10/31 05:08:59;;;;;;;77.70;44.08;;;;;;;-0.29;100.00;101363.75;1631954;86;21126;-73
2021/10/31 05:11:26;;;;;;;81.95;46.35;;;;;;;-0.31;100.00;101360.23;1635662;86;21616;-73
2021/10/31 05:13:53;;;;;;;85.32;48.92;;;;;;;-0.31;100.00;101355.48;1627652;87;21569;-73
2021/10/31 05:16:19;;;;;;;78.42;44.83;;;;;;;-0.32;100.00;101355.91;1640058;87;21144;-73
2021/10/31 05:18:46;;;;;;;78.47;43.23;;;;;;;-0.32;100.00;101355.91;1627591;87;21161;-74
2021/10/31 05:21:13;;;;;;;71.40;41.60;;;;;;;-0.31;100.00;101356.35;1632582;87;21081;-74
2021/10/31 05:23:39;;;;;;;92.33;47.38;;;;;;;-0.29;100.00;101357.70;1632974;87;21099;-74
2021/10/31 05:26:05;;;;;;;88.22;47.25;;;;;;;-0.26;100.00;101362.52;1636310;87;21052;-74
2021/10/31 05:28:32;;;;;;;86.95;47.10;;;;;;;-0.23;100.00;101353.56;1621188;87;21138;-73
2021/10/31 05:30:59;;;;;;;84.45;46.83;;;;;;;-0.19;100.00;101357.52;1633637;87;21169;-72
2021/10/31 05:33:26;;;;;;;85.38;47.98;;;;;;;-0.15;100.00;101357.64;1639940;85;24025;-73
2021/10/31 05:35:53;;;;;;;88.47;47.10;;;;;;;-0.10;100.00;101361.64;1655341;85;21091;-73
2021/10/31 05:38:20;;;;;;;77.25;48.02;;;;;;;-0.04;100.00;101356.63;1622240;87;21031;-74
2021/10/31 05:40:48;;;;;;;80.60;43.02;;;;;;;0.03;100.00;101359.84;1639449;86;21097;-73
2021/10/31 05:43:14;;;;;;;86.60;46.40;;;;;;;0.12;100.00;101358.77;1658535;85;21316;-73
2021/10/31 05:45:41;;;;;;;84.17;46.50;;;;;;;0.24;100.00;101356.03;1639571;86;21081;-73
2021/10/31 05:48:08;;;;;;;73.97;43.65;;;;;;;0.32;100.00;101350.60;1643887;85;21133;-74
2021/10/31 05:50:35;;;;;;;84.25;46.53;;;;;;;0.40;100.00;101351.68;1644963;86;21094;-72
2021/10/31 05:53:02;;;;;;;103.78;56.95;;;;;;;0.54;100.00;101353.30;1639955;86;21099;-74
2021/10/31 05:55:29;;;;;;;99.15;54.03;;;;;;;0.84;100.00;101348.80;1644700;85;21166;-74
2021/10/31 05:57:56;;;;;;;98.42;54.70;;;;;;;1.42;100.00;101355.64;1614456;87;21431;-73
2021/10/31 06:00:23;;;;;;;86.95;50.30;;;;;;;2.06;100.00;101351.20;1649560;85;21144;-75
2021/10/31 06:02:50;;;;;;;72.27;42.35;;;;;;;2.73;100.00;101350.97;1628128;86;21094;-74
2021/10/31 06:05:17;;;;;;;69.60;39.23;;;;;;;3.39;100.00;101343.17;1645294;85;21136;-74
2021/10/31 06:07:46;;;;;;;62.25;36.90;;;;;;;4.03;100.00;101344.72;1608272;88;21099;-73
2021/10/31 06:10:12;;;;;;;59.85;35.80;;;;;;;4.73;100.00;101341.77;1657039;85;22155;-76
2021/10/31 06:12:47;;;;;;;50.48;32.20;;;;;;;5.38;100.00;101343.86;1631681;86;21090;-74
2021/10/31 06:15:16;;;;;;;57.38;33.63;;;;;;;6.02;100.00;101336.61;1639262;85;21090;-74
2021/10/31 06:17:43;;;;;;;52.85;32.42;;;;;;;6.70;100.00;101332.67;1613134;88;21109;-74
2021/10/31 06:20:12;;;;;;;47.53;29.57;;;;;;;7.29;100.00;101335.55;1652732;85;21075;-74
2021/10/31 06:22:39;;;;;;;48.35;29.10;;;;;;;7.72;100.00;101332.69;1636660;86;21102;-74
2021/10/31 06:25:08;;;;;;;45.23;30.50;;;;;;;8.25;100.00;101331.87;1642487;85;21643;-75
2021/10/31 06:27:36;;;;;;;42.35;28.98;;;;;;;8.72;100.00;101324.47;1611605;88;21054;-74
2021/10/31 06:30:04;;;;;;;41.37;28.60;;;;;;;9.23;100.00;101332.68;1646888;85;21153;-75
2021/10/31 06:32:31;;;;;;;44.45;28.90;;;;;;;9.70;94.67;101328.53;1600495;85;21558;-74
2021/10/31 06:34:57;;;;;;;36.60;25.55;;;;;;;10.21;91.55;101333.88;1608936;87;21099;-75
2021/10/31 06:37:24;;;;;;;38.08;27.02;;;;;;;10.68;87.63;101334.87;1644092;87;21095;-75
2021/10/31 06:39:50;;;;;;;40.20;26.27;;;;;;;11.17;83.92;101338.80;1615545;88;21732;-76
2021/10/31 06:42:17;;;;;;;38.13;25.85;;;;;;;11.40;79.62;101335.22;1621896;87;21098;-76
2021/10/31 06:44:43;;;;;;;42.03;27.55;;;;;;;11.52;77.25;101332.31;1644515;87;21493;-76
2021/10/31 06:47:09;;;;;;;38.48;26.62;;;;;;;11.61;75.10;101333.02;1614895;88;21164;-77
2021/10/31 06:49:41;;;;;;;37.00;26.00;;;;;;;11.75;70.15;101338.86;1632728;87;21084;-75
2021/10/31 06:52:08;;;;;;;39.25;27.20;;;;;;;12.04;71.76;101334.72;1633130;87;21568;-75
2021/10/31 06:54:35;;;;;;;34.98;25.45;;;;;;;12.40;71.84;101327.67;1631196;87;21066;-74
2021/10/31 06:57:03;;;;;;;34.92;26.10;;;;;;;12.86;67.95;101330.84;1632535;86;21878;-77
2021/10/31 06:59:32;;;;;;;35.63;25.52;;;;;;;13.00;63.11;101327.39;1633009;87;21102;-75
2021/10/31 07:02:00;;;;;;;35.92;25.43;;;;;;;13.21;62.50;101325.45;1632471;87;21074;-74
2021/10/31 07:04:29;;;;;;;35.88;23.95;;;;;;;13.39;60.51;101321.90;1608730;87;21461;-76
2021/10/31 07:06:58;;;;;;;38.10;24.47;;;;;;;13.52;57.28;101324.56;1632681;87;21069;-76
2021/10/31 07:09:26;;;;;;;33.65;23.05;;;;;;;13.44;56.91;101319.98;1637352;86;21533;-76
2021/10/31 07:11:54;;;;;;;36.90;25.00;;;;;;;13.23;58.02;101326.27;1638429;86;21057;-75
2021/10/31 07:14:20;;;;;;;35.05;24.57;;;;;;;13.31;59.38;101328.72;1638983;86;21112;-76
2021/10/31 07:16:47;;;;;;;32.75;23.42;;;;;;;13.68;59.28;101322.31;1633091;87;21042;-76
2021/10/31 07:19:13;;;;;;;34.45;24.75;;;;;;;14.01;58.93;101317.75;1632429;87;21105;-75
2021/10/31 07:21:40;;;;;;;38.80;24.85;;;;;;;14.43;57.07;101317.23;1633659;86;21210;-75
2021/10/31 07:24:07;;;;;;;31.70;22.65;;;;;;;14.95;56.79;101313.69;1633047;87;21097;-77
2021/10/31 07:26:35;;;;;;;30.27;21.77;;;;;;;15.30;54.16;101321.23;1628407;87;21098;-74
2021/10/31 07:29:01;;;;;;;33.25;23.60;;;;;;;15.66;54.30;101318.06;1632557;87;21384;-75
2021/10/31 07:31:33;;;;;;;30.62;22.35;;;;;;;16.03;52.61;101317.09;1628173;86;32450;-74
2021/10/31 07:34:01;;;;;;;27.22;19.77;;;;;;;16.38;51.37;101312.98;1644381;87;21643;-75
2021/10/31 07:36:27;;;;;;;33.83;23.38;;;;;;;16.80;50.08;101314.73;1645992;86;21099;-76
2021/10/31 07:38:54;;;;;;;33.13;24.72;;;;;;;17.13;48.77;101307.50;1645480;87;21430;-76
2021/10/31 07:41:21;;;;;;;32.42;23.52;;;;;;;17.39;48.21;101306.28;1642436;87;21188;-75
2021/10/31 07:43:48;;;;;;;29.40;22.70;;;;;;;17.21;44.92;101313.34;1643636;87;21095;-74
2021/10/31 07:46:14;;;;;;;28.83;21.40;;;;;;;16.65;44.40;101308.72;1647040;87;21197;-75
2021/10/31 07:48:41;;;;;;;27.70;22.27;;;;;;;16.32;45.57;101311.91;1643964;87;21128;-75
2021/10/31 07:51:09;;;;;;;32.08;22.17;;;;;;;16.42;46.24;101314.56;1643335;87;21162;-75
2021/10/31 07:53:39;;;;;;;28.85;20.52;;;;;;;16.72;45.16;101310.17;1644423;87;21078;-75
2021/10/31 07:56:04;;;;;;;26.02;20.90;;;;;;;16.65;44.67;101306.06;1646628;86;21044;-76
2021/10/31 07:58:31;;;;;;;31.65;20.52;;;;;;;16.52;45.20;101309.27;1643041;87;21524;-75
2021/10/31 08:00:57;;;;;;;25.23;19.48;;;;;;;16.52;45.40;101306.60;1647114;86;21617;-75
2021/10/31 08:03:23;;;;;;;32.80;22.75;;;;;;;16.77;46.47;101306.84;1646689;86;21522;-76
2021/10/31 08:05:51;;;;;;;31.70;22.22;;;;;;;17.21;45.33;101313.34;1643011;87;21084;-78
2021/10/31 08:08:17;;;;;;;31.52;23.62;;;;;;;17.67;44.62;101307.64;1645762;87;21120;-76
2021/10/31 08:10:46;;;;;;;31.90;22.93;;;;;;;17.89;43.87;101308.84;1647187;87;21891;-75
2021/10/31 08:13:26;;;;;;;26.65;21.33;;;;;;;18.41;43.81;101306.25;1639766;87;21192;-76
2021/10/31 08:15:53;;;;;;;32.25;21.75;;;;;;;18.86;41.90;101305.70;1639641;87;21144;-76
2021/10/31 08:18:20;;;;;;;31.37;22.62;;;;;;;19.10;40.78;101308.47;1643118;87;21048;-75
2021/10/31 08:20:47;;;;;;;30.10;19.73;;;;;;;19.38;40.10;101311.34;1646102;87;21028;-75
2021/10/31 08:23:16;;;;;;;27.50;20.65;;;;;;;19.33;39.09;101306.73;1646465;87;21126;-75
2021/10/31 08:25:44;;;;;;;29.95;22.02;;;;;;;19.42;39.18;101303.56;1645218;87;21153;-76
2021/10/31 08:28:12;;;;;;;33.15;21.30;;;;;;;19.78;39.00;101299.78;1641031;87;21071;-75
2021/10/31 08:30:44;;;;;;;27.15;20.45;;;;;;;20.04;38.32;101290.77;1646481;87;21753;-77
2021/10/31 08:33:18;;;;;;;28.42;20.05;;;;;;;20.01;37.78;101293.59;1644524;82;26792;-75
2021/10/31 08:35:38;;;;;;;30.85;21.30;;;;;;;20.08;37.68;101289.61;1647320;87;21163;-75
2021/10/31 08:38:04;;;;;;;28.05;21.15;;;;;;;20.18;38.31;101292.62;1646824;86;21056;-75
2021/10/31 08:40:31;;;;;;;31.90;21.33;;;;;;;20.36;38.09;101289.31;1646950;87;21581;-75
2021/10/31 08:42:58;;;;;;;24.52;19.40;;;;;;;20.48;38.35;101287.27;1646945;87;21074;-76
2021/10/31 08:45:24;;;;;;;27.90;18.20;;;;;;;20.58;37.60;101281.76;1647307;87;21541;-75
2021/10/31 08:47:51;;;;;;;28.90;20.68;;;;;;;20.62;38.44;101277.95;1647187;86;21612;-75
2021/10/31 08:50:17;;;;;;;27.62;20.50;;;;;;;20.79;36.47;101281.41;1643752;87;21129;-75
2021/10/31 08:52:44;;;;;;;25.72;18.90;;;;;;;20.77;37.41;101277.95;1646576;86;21033;-75
2021/10/31 08:55:10;;;;;;;27.13;19.35;;;;;;;20.82;37.66;101275.84;1647392;87;21094;-76
2021/10/31 08:57:40;;;;;;;27.13;18.40;;;;;;;20.94;37.09;101279.98;1646406;86;21556;-78
2021/10/31 09:00:07;;;;;;;25.40;18.17;;;;;;;20.68;36.34;101269.55;1640629;87;21144;-76
2021/10/31 09:02:36;;;;;;;26.05;17.73;;;;;;;20.50;37.28;101263.95;1646604;86;21074;-74
2021/10/31 09:05:05;;;;;;;22.37;16.93;;;;;;;20.43;37.20;101267.92;1647264;87;21081;-75
2021/10/31 09:07:31;;;;;;;28.65;17.40;;;;;;;20.18;37.78;101268.56;1641814;87;21082;-75
2021/10/31 09:09:59;;;;;;;26.25;18.30;;;;;;;20.35;37.46;101256.84;1647000;86;21070;-75
2021/10/31 09:12:26;;;;;;;23.52;17.10;;;;;;;20.63;37.61;101256.91;1646741;87;21124;-75
2021/10/31 09:14:52;;;;;;;25.37;16.75;;;;;;;20.83;36.79;101256.17;1646605;87;21079;-76
2021/10/31 09:17:21;;;;;;;25.30;17.02;;;;;;;20.99;36.88;101254.25;1646000;86;21106;-76
2021/10/31 09:19:50;;;;;;;27.22;19.00;;;;;;;21.32;36.72;101246.36;1646358;86;21133;-75
2021/10/31 09:22:16;;;;;;;26.77;19.27;;;;;;;21.68;36.21;101236.92;1647120;87;21082;-75
2021/10/31 09:24:43;;;;;;;24.98;19.27;;;;;;;21.63;35.54;101240.39;1646342;86;21136;-75
2021/10/31 09:27:09;;;;;;;26.17;18.17;;;;;;;21.20;35.70;101237.78;1646168;87;21583;-76
2021/10/31 09:29:35;;;;;;;27.42;17.62;;;;;;;21.04;36.59;101241.42;1646659;87;21031;-76
2021/10/31 09:32:02;;;;;;;20.37;14.07;;;;;;;21.41;37.25;101237.76;1645399;82;34211;-76
2021/10/31 09:34:29;;;;;;;22.27;12.05;;;;;;;21.36;34.73;101231.81;1647033;86;21062;-76
2021/10/31 09:36:57;;;;;;;15.68;10.50;;;;;;;21.23;34.66;101230.88;1646575;87;21141;-76
2021/10/31 09:39:25;;;;;;;16.40;10.00;;;;;;;21.29;33.82;101234.51;1646199;87;21115;-76
2021/10/31 09:41:51;;;;;;;14.78;10.55;;;;;;;21.31;33.00;101229.91;1646286;86;21572;-76
2021/10/31 09:48:12;;;;;;;18.17;10.38;;;;;;;19.77;35.30;101226.39;1795271;78;23277;-76
2021/10/31 09:50:42;;;;;;;13.90;10.18;;;;;;;19.43;36.06;101225.12;1762314;80;21614;-73
2021/10/31 09:53:10;;;;;;;16.37;10.25;;;;;;;19.48;36.18;101223.53;1764777;80;21081;-76
2021/10/31 09:55:40;;;;;;;14.43;9.65;;;;;;;19.43;35.61;101233.63;1728295;81;21599;-73
2021/10/31 09:58:15;;;;;;;14.13;9.20;;;;;;;18.69;36.29;101236.78;1711500;83;21103;-74
2021/10/31 10:00:40;;;;;;;18.17;10.60;;;;;;;18.40;38.47;101231.16;1711069;82;21070;-76
2021/10/31 10:03:35;;;;;;;15.68;9.68;;;;;;;18.72;39.03;101228.12;1720550;82;21517;-75
2021/10/31 10:05:45;;;;;;;18.67;11.45;;;;;;;19.10;36.52;101220.36;1704664;82;22171;-76
2021/10/31 10:08:17;;;;;;;20.68;10.13;;;;;;;18.62;36.88;101227.77;1717617;82;21038;-75
2021/10/31 10:10:53;;;;;;;18.05;11.20;;;;;;;18.15;37.71;101221.80;1721129;82;21045;-77
2021/10/31 10:13:25;;;;;;;18.12;11.83;;;;;;;17.85;38.51;101212.66;1726098;83;20911;-74
2021/10/31 10:15:54;;;;;;;17.82;10.63;;;;;;;18.01;38.43;101213.61;1703449;83;21064;-75
2021/10/31 10:18:33;;;;;;;17.55;9.43;;;;;;;18.53;38.53;101212.25;1720709;82;21547;-75
2021/10/31 10:21:31;;;;;;;16.97;10.48;;;;;;;19.02;36.58;101205.61;1714680;82;21070;-76
2021/10/31 10:24:01;;;;;;;20.10;10.48;;;;;;;18.88;37.67;101209.52;1706732;82;21415;-75
2021/10/31 10:26:39;;;;;;;17.73;9.50;;;;;;;18.89;36.65;101203.25;1707347;82;21088;-74
2021/10/31 10:29:27;;;;;;;13.95;9.85;;;;;;;18.60;36.86;101194.97;1706065;82;22366;-75
2021/10/31 10:32:01;;;;;;;16.05;9.75;;;;;;;18.38;37.51;101197.05;1705789;83;21311;-75
2021/10/31 10:34:44;;;;;;;15.90;9.93;;;;;;;18.18;37.87;101194.96;1706526;83;21053;-75
2021/10/31 10:37:32;;;;;;;20.77;11.12;;;;;;;18.22;37.77;101188.53;1706712;83;21659;-75
2021/10/31 10:40:08;;;;;;;13.80;9.35;;;;;;;18.09;38.06;101186.11;1706971;83;21072;-74
2021/10/31 10:42:41;;;;;;;15.80;9.43;;;;;;;17.99;39.27;101172.84;1707705;84;21087;-74
2021/10/31 10:45:16;;;;;;;16.07;10.50;;;;;;;17.53;39.06;101173.36;1717804;82;21085;-74
2021/10/31 10:48:02;;;;;;;23.70;12.33;;;;;;;17.44;40.40;101171.15;1716017;83;21013;-73
2021/10/31 10:50:39;;;;;;;15.48;9.80;;;;;;;17.51;39.32;101170.38;1726865;82;21784;-74
2021/10/31 10:53:22;;;;;;;17.48;10.70;;;;;;;17.40;39.32;101162.91;1720342;83;21639;-73
2021/10/31 10:55:49;;;;;;;16.35;10.43;;;;;;;17.32;39.65;101164.62;1719497;83;21080;-77
2021/10/31 10:58:18;;;;;;;17.52;11.28;;;;;;;17.02;40.24;101159.42;1728438;81;21635;-75
2021/10/31 11:00:49;;;;;;;16.05;10.00;;;;;;;17.04;40.60;101156.23;1712587;82;21064;-74
2021/10/31 11:03:20;;;;;;;18.10;10.45;;;;;;;17.20;40.71;101147.90;1715295;82;21136;-75
2021/10/31 11:05:50;;;;;;;14.47;9.55;;;;;;;17.50;41.79;101143.34;1708874;83;21124;-74
2021/10/31 11:08:21;;;;;;;20.05;11.60;;;;;;;17.85;42.51;101138.06;1716908;82;21045;-76
2021/10/31 11:10:54;;;;;;;15.48;8.83;;;;;;;18.23;39.18;101139.59;1706936;83;21080;-78
2021/10/31 11:13:23;;;;;;;15.53;9.40;;;;;;;18.72;39.00;101135.22;1716938;82;21069;-74
2021/10/31 11:15:49;;;;;;;17.42;9.58;;;;;;;18.72;37.29;101133.88;1715171;82;21579;-73
2021/10/31 11:18:16;;;;;;;11.08;8.03;;;;;;;18.56;37.17;101133.86;1739322;82;21820;-75
2021/10/31 11:20:44;;;;;;;16.48;9.70;;;;;;;18.40;37.28;101136.48;1735170;82;21122;-74
2021/10/31 11:23:14;;;;;;;15.13;9.20;;;;;;;18.07;38.22;101138.67;1735715;82;21126;-73
2021/10/31 11:25:43;;;;;;;17.47;9.93;;;;;;;18.11;38.58;101126.92;1733976;82;21142;-75